createdAt,value
2017-03-19T17:47:48.755Z,10.50
2017-03-19T17:48:48.125Z,10.60
2017-03-19T17:49:47.757Z,10.60
2017-03-19T17:50:47.033Z,10.60
2017-03-19T17:51:46.362Z,10.50
2017-03-19T17:52:46.420Z,10.50
2017-03-19T17:53:45.751Z,10.50
2017-03-19T17:54:45.160Z,10.50
2017-03-19T17:55:44.499Z,10.60
2017-03-19T17:56:43.855Z,10.60
2017-03-19T17:57:43.175Z,10.60
2017-03-19T17:58:42.527Z,10.60
2017-03-19T17:59:41.777Z,10.60
2017-03-19T18:00:41.057Z,10.50
2017-03-19T18:01:40.359Z,10.60
2017-03-19T18:02:39.750Z,10.60
2017-03-19T18:03:39.106Z,10.60
2017-03-19T18:04:38.443Z,10.60
2017-03-19T18:05:38.168Z,10.50
2017-03-19T18:06:37.470Z,10.40
2017-03-19T18:07:36.839Z,10.40
2017-03-19T18:08:36.999Z,10.40
2017-03-19T18:09:37.099Z,10.50
2017-03-19T18:10:36.601Z,10.60
2017-03-19T18:11:36.359Z,10.50
2017-03-19T18:12:35.702Z,10.50
2017-03-19T18:13:36.330Z,10.50
2017-03-19T18:14:35.694Z,10.40
2017-03-19T18:15:35.046Z,10.40
2017-03-19T18:16:34.361Z,10.50
2017-03-19T18:17:33.986Z,10.50
2017-03-19T18:18:33.297Z,10.50
2017-03-19T18:19:32.562Z,10.50
2017-03-19T18:20:31.841Z,10.50
2017-03-19T18:21:31.170Z,10.50
2017-03-19T18:22:30.525Z,10.40
2017-03-19T18:23:30.182Z,10.40
2017-03-19T18:24:30.245Z,10.40
2017-03-19T18:25:29.556Z,10.50
2017-03-19T18:26:28.874Z,10.50
2017-03-19T18:27:28.218Z,10.50
2017-03-19T18:28:27.543Z,10.60
2017-03-19T18:29:27.398Z,10.60
2017-03-19T18:30:26.738Z,10.60
2017-03-19T18:31:26.076Z,10.60
2017-03-19T18:32:26.158Z,10.50
2017-03-19T18:33:25.517Z,10.50
2017-03-19T18:34:24.828Z,10.50
2017-03-19T18:35:24.648Z,10.50
2017-03-19T18:36:29.276Z,10.50
2017-03-19T18:37:28.602Z,10.50
2017-03-19T18:38:27.907Z,10.50
2017-03-19T18:39:27.233Z,10.50
2017-03-19T18:40:26.901Z,10.50
2017-03-19T18:41:26.270Z,10.50
2017-03-19T18:42:25.619Z,10.50
2017-03-19T18:43:24.930Z,10.50
2017-03-19T18:44:24.307Z,10.50
2017-03-19T18:45:23.636Z,10.50
2017-03-19T18:46:23.288Z,10.50
2017-03-19T18:47:22.582Z,10.50
2017-03-19T18:48:22.045Z,10.50
2017-03-19T18:49:21.402Z,10.50
2017-03-19T18:50:20.878Z,10.60
2017-03-19T18:51:20.711Z,10.50
2017-03-19T18:52:20.359Z,10.60
2017-03-19T18:53:19.728Z,10.60
2017-03-19T18:54:19.086Z,10.60
2017-03-19T18:55:18.454Z,10.60
2017-03-19T18:56:17.712Z,10.60
2017-03-19T18:57:17.267Z,10.60
2017-03-19T18:58:18.786Z,10.60
2017-03-19T18:59:18.077Z,10.60
2017-03-19T19:00:17.401Z,10.50
2017-03-19T19:01:16.842Z,10.50
2017-03-19T19:02:16.147Z,10.50
2017-03-19T19:03:15.550Z,10.50
2017-03-19T19:04:15.247Z,10.50
2017-03-19T19:05:17.189Z,10.50
2017-03-19T19:06:16.583Z,10.50
2017-03-19T19:07:15.969Z,10.50
2017-03-19T19:08:15.281Z,10.50
2017-03-19T19:09:14.656Z,10.50
2017-03-19T19:10:14.010Z,10.50
2017-03-19T19:11:13.417Z,10.50
2017-03-19T19:12:13.001Z,10.50
2017-03-19T19:13:12.352Z,10.60
2017-03-19T19:14:11.797Z,10.50
2017-03-19T19:15:11.596Z,10.50
2017-03-19T19:16:10.911Z,10.50
2017-03-19T19:17:11.040Z,10.40
2017-03-19T19:18:10.431Z,10.50
2017-03-19T19:19:09.813Z,10.50
2017-03-19T19:20:09.176Z,10.50
2017-03-19T19:21:10.389Z,10.50
2017-03-19T19:22:09.725Z,10.50
2017-03-19T19:23:09.143Z,10.50
2017-03-19T19:24:08.722Z,10.50
2017-03-19T19:28:58.442Z,10.50
2017-03-19T19:29:57.725Z,10.40
2017-03-19T19:30:57.047Z,10.40
2017-03-19T19:31:56.598Z,10.40
2017-03-19T19:32:55.947Z,10.40
2017-03-19T19:33:55.228Z,10.40
2017-03-19T19:34:55.824Z,10.40
2017-03-19T19:35:55.274Z,10.40
2017-03-19T19:36:55.362Z,10.40
2017-03-19T19:37:55.248Z,10.40
2017-03-19T19:38:54.563Z,10.40
2017-03-19T19:39:53.851Z,10.40
2017-03-19T19:40:53.563Z,10.50
2017-03-19T19:41:52.919Z,10.50
2017-03-19T19:42:52.251Z,10.40
2017-03-19T19:43:51.552Z,10.50
2017-03-19T19:44:50.889Z,10.50
2017-03-19T19:45:50.196Z,10.50
2017-03-19T19:46:49.801Z,10.50
2017-03-19T19:47:49.155Z,10.40
2017-03-19T19:48:48.479Z,10.40
2017-03-19T19:49:47.857Z,10.50
2017-03-19T19:50:48.408Z,10.50
2017-03-19T19:51:55.738Z,10.50
2017-03-19T19:52:55.680Z,10.50
2017-03-19T19:53:55.396Z,10.40
2017-03-19T19:54:54.856Z,10.50
2017-03-19T19:55:58.786Z,10.40
2017-03-19T19:56:59.772Z,10.50
2017-03-19T19:57:59.051Z,10.40
2017-03-19T19:58:58.359Z,10.40
2017-03-19T19:59:57.784Z,10.40
2017-03-19T20:00:57.885Z,10.40
2017-03-19T20:01:57.220Z,10.50
2017-03-19T20:02:56.894Z,10.50
2017-03-19T20:03:56.214Z,10.40
2017-03-19T20:04:55.532Z,10.40
2017-03-19T20:05:54.861Z,10.30
2017-03-19T20:06:54.190Z,10.40
2017-03-19T20:07:53.528Z,10.40
2017-03-19T20:08:53.235Z,10.40
2017-03-19T20:09:52.546Z,10.40
2017-03-19T20:10:51.865Z,10.40
2017-03-19T20:11:51.260Z,10.40
2017-03-19T20:12:51.179Z,10.50
2017-03-19T20:13:50.522Z,10.50
2017-03-19T20:14:50.266Z,10.50
2017-03-19T20:15:49.572Z,10.50
2017-03-19T20:16:48.888Z,10.40
2017-03-19T20:17:48.311Z,10.40
2017-03-19T20:18:47.633Z,10.40
2017-03-19T20:19:46.994Z,10.40
2017-03-19T20:20:46.854Z,10.30
2017-03-19T20:21:46.167Z,10.30
2017-03-19T20:22:46.247Z,10.40
2017-03-19T20:23:45.766Z,10.40
2017-03-19T20:24:45.168Z,10.40
2017-03-19T20:25:44.526Z,10.40
2017-03-19T20:26:44.262Z,10.40
2017-03-19T20:27:44.366Z,10.40
2017-03-19T20:28:43.691Z,10.40
2017-03-19T20:29:43.034Z,10.40
2017-03-19T20:30:42.355Z,10.40
2017-03-19T20:31:41.677Z,10.40
2017-03-19T20:32:42.130Z,10.40
2017-03-19T20:33:41.418Z,10.40
2017-03-19T20:34:40.712Z,10.40
2017-03-19T20:35:40.209Z,10.40
2017-03-19T20:36:39.548Z,10.40
2017-03-19T20:37:38.894Z,10.40
2017-03-19T20:38:38.533Z,10.40
2017-03-19T20:39:37.858Z,10.40
2017-03-19T20:40:37.217Z,10.40
2017-03-19T20:41:36.545Z,10.40
2017-03-19T20:42:36.429Z,10.40
2017-03-19T20:43:35.798Z,10.40
2017-03-19T20:44:35.448Z,10.40
2017-03-19T20:45:34.806Z,10.40
2017-03-19T20:46:34.190Z,10.40
2017-03-19T20:47:33.594Z,10.40
2017-03-19T20:48:32.916Z,10.30
2017-03-19T20:49:32.328Z,10.40
2017-03-19T20:50:32.495Z,10.40
2017-03-19T20:51:31.803Z,10.30
2017-03-19T20:52:31.336Z,10.30
2017-03-19T20:53:30.855Z,10.30
2017-03-19T20:54:30.156Z,10.30
2017-03-19T20:55:29.485Z,10.40
2017-03-19T20:56:29.574Z,10.40
2017-03-19T20:57:28.912Z,10.30
2017-03-19T20:58:28.276Z,10.30
2017-03-19T20:59:27.543Z,10.30
2017-03-19T21:00:26.898Z,10.30
2017-03-19T21:01:26.223Z,10.40
2017-03-19T21:02:25.917Z,10.40
2017-03-19T21:03:25.299Z,10.30
2017-03-19T21:04:24.958Z,10.30
2017-03-19T21:05:24.258Z,10.30
2017-03-19T21:06:23.545Z,10.40
2017-03-19T21:07:22.862Z,10.40
2017-03-19T21:08:22.560Z,10.40
2017-03-19T21:09:22.821Z,10.40
2017-03-19T21:10:22.109Z,10.30
2017-03-19T21:11:24.332Z,10.30
2017-03-19T21:12:23.738Z,10.30
2017-03-19T21:13:23.918Z,10.30
2017-03-19T21:14:23.233Z,10.30
2017-03-19T21:15:22.875Z,10.30
2017-03-19T21:16:22.271Z,10.40
2017-03-19T21:17:22.326Z,10.40
2017-03-19T21:18:21.929Z,10.40
2017-03-19T21:19:21.653Z,10.40
2017-03-19T21:20:20.977Z,10.40
2017-03-19T21:21:20.309Z,10.30
2017-03-19T21:22:19.587Z,10.40
2017-03-19T21:23:18.955Z,10.30
2017-03-19T21:24:18.297Z,10.30
2017-03-19T21:25:18.692Z,10.30
2017-03-19T21:26:18.102Z,10.30
2017-03-19T21:27:17.418Z,10.30
2017-03-19T21:28:16.757Z,10.30
2017-03-19T21:29:16.277Z,10.30
2017-03-19T21:30:19.412Z,10.30
2017-03-19T21:31:18.715Z,10.30
2017-03-19T21:32:18.078Z,10.30
2017-03-19T21:33:17.459Z,10.30
2017-03-19T21:34:17.553Z,10.30
2017-03-19T21:35:16.859Z,10.30
2017-03-19T21:36:17.230Z,10.30
2017-03-19T21:37:16.567Z,10.30
2017-03-19T21:38:22.746Z,10.20
2017-03-19T21:39:28.566Z,10.20
2017-03-19T21:40:28.111Z,10.20
2017-03-19T21:41:27.920Z,10.20
2017-03-19T21:42:27.222Z,10.30
2017-03-19T21:43:26.494Z,10.30
2017-03-19T21:44:25.885Z,10.30
2017-03-19T21:45:26.717Z,10.30
2017-03-19T21:46:26.028Z,10.30
2017-03-19T21:47:25.804Z,10.30
2017-03-19T21:48:25.101Z,10.30
2017-03-19T21:49:24.387Z,10.30
2017-03-19T21:50:23.737Z,10.30
2017-03-19T21:51:23.067Z,10.30
2017-03-19T21:52:22.384Z,10.20
2017-03-19T21:53:22.055Z,10.30
2017-03-19T21:54:21.325Z,10.20
2017-03-19T21:55:20.686Z,10.20
2017-03-19T21:56:20.766Z,10.20
2017-03-19T21:57:20.037Z,10.20
2017-03-19T21:58:19.314Z,10.20
2017-03-19T21:59:18.924Z,10.20
2017-03-19T22:00:18.340Z,10.10
2017-03-19T22:01:17.877Z,10.10
2017-03-19T22:02:17.792Z,10.10
2017-03-19T22:03:17.974Z,10.10
2017-03-19T22:04:17.253Z,10.10
2017-03-19T22:05:17.028Z,10.10
2017-03-19T22:06:16.338Z,10.10
2017-03-19T22:07:15.758Z,10.10
2017-03-19T22:08:15.778Z,10.10
2017-03-19T22:09:15.123Z,10.10
2017-03-19T22:10:14.727Z,10.10
2017-03-19T22:11:15.333Z,10.10
2017-03-19T22:12:14.638Z,10.10
2017-03-19T22:13:14.087Z,10.10
2017-03-19T22:14:13.390Z,10.10
2017-03-19T22:15:12.701Z,10.00
2017-03-19T22:16:12.418Z,10.00
2017-03-19T22:17:12.181Z,10.00
2017-03-19T22:18:11.589Z,10.00
2017-03-19T22:19:10.895Z,10.00
2017-03-19T22:20:10.198Z,10.00
2017-03-19T22:21:11.814Z,10.10
2017-03-19T22:22:11.196Z,10.10
2017-03-19T22:23:11.745Z,10.10
2017-03-19T22:24:11.114Z,10.00
2017-03-19T22:25:12.706Z,10.00
2017-03-19T22:26:12.257Z,10.00
2017-03-19T22:27:11.936Z,10.00
2017-03-19T22:28:11.247Z,10.00
2017-03-19T22:29:10.603Z,9.90
2017-03-19T22:30:09.895Z,9.90
2017-03-19T22:31:09.235Z,9.90
2017-03-19T22:32:08.547Z,9.90
2017-03-19T22:33:08.187Z,9.80
2017-03-19T22:34:08.231Z,9.80
2017-03-19T22:35:07.538Z,9.90
2017-03-19T22:36:06.937Z,9.90
2017-03-19T22:37:08.983Z,9.90
2017-03-19T22:38:08.656Z,9.80
2017-03-19T22:39:08.185Z,9.80
2017-03-19T22:40:09.855Z,9.80
2017-03-19T22:41:09.192Z,9.80
2017-03-19T22:42:10.641Z,9.80
2017-03-19T22:43:10.734Z,9.80
2017-03-19T22:44:11.776Z,9.80
2017-03-19T22:45:11.066Z,9.80
2017-03-19T22:46:12.414Z,9.80
2017-03-19T22:47:11.797Z,9.80
2017-03-19T22:48:11.393Z,9.80
2017-03-19T22:49:10.683Z,9.80
2017-03-19T22:50:10.389Z,9.80
2017-03-19T22:51:09.685Z,9.80
2017-03-19T22:52:09.015Z,9.70
2017-03-19T22:53:08.283Z,9.70
2017-03-19T22:54:08.876Z,9.70
2017-03-19T22:55:08.160Z,9.80
2017-03-19T22:56:07.822Z,9.80
2017-03-19T22:57:07.340Z,9.80
2017-03-19T22:58:08.396Z,9.80
2017-03-19T22:59:08.395Z,9.80
2017-03-19T23:00:07.923Z,9.80
2017-03-19T23:01:07.296Z,9.80
2017-03-19T23:02:07.372Z,9.80
2017-03-19T23:03:06.696Z,9.80
2017-03-19T23:04:06.076Z,9.80
2017-03-19T23:05:05.753Z,9.80
2017-03-19T23:06:05.784Z,9.80
2017-03-19T23:07:05.103Z,9.80
2017-03-19T23:08:04.454Z,9.80
2017-03-19T23:09:04.106Z,9.80
2017-03-19T23:10:03.414Z,9.80
2017-03-19T23:11:03.036Z,9.80
2017-03-19T23:12:02.322Z,9.80
2017-03-19T23:13:01.630Z,9.80
2017-03-19T23:14:00.927Z,9.80
2017-03-19T23:15:00.355Z,9.80
2017-03-19T23:15:59.647Z,9.70
2017-03-19T23:17:02.614Z,9.70
2017-03-19T23:18:07.043Z,9.70
2017-03-19T23:19:06.356Z,9.70
2017-03-19T23:20:05.964Z,9.80
2017-03-19T23:21:05.278Z,9.80
2017-03-19T23:22:04.886Z,9.70
2017-03-19T23:23:04.213Z,9.70
2017-03-19T23:24:03.486Z,9.70
2017-03-19T23:25:02.827Z,9.70
2017-03-19T23:26:02.133Z,9.70
2017-03-19T23:27:01.424Z,9.70
2017-03-19T23:28:01.097Z,9.70
2017-03-19T23:29:00.402Z,9.70
2017-03-19T23:29:59.705Z,9.60
2017-03-19T23:30:58.995Z,9.70
2017-03-19T23:31:58.294Z,9.70
2017-03-19T23:33:04.628Z,9.70
2017-03-19T23:34:03.988Z,9.70
2017-03-19T23:35:03.293Z,9.70
2017-03-19T23:36:02.614Z,9.80
2017-03-19T23:37:01.917Z,9.70
2017-03-19T23:38:01.278Z,9.80
2017-03-19T23:39:00.940Z,9.80
2017-03-19T23:40:00.284Z,9.80
2017-03-19T23:41:00.447Z,9.70
2017-03-19T23:41:59.797Z,9.70
2017-03-19T23:42:59.144Z,9.80
2017-03-19T23:43:58.438Z,9.80
2017-03-19T23:44:58.235Z,9.80
2017-03-19T23:45:58.222Z,9.70
2017-03-19T23:46:57.508Z,9.70
2017-03-19T23:47:56.855Z,9.70
2017-03-19T23:48:56.347Z,9.70
2017-03-19T23:49:55.643Z,9.70
2017-03-19T23:50:55.298Z,9.70
2017-03-19T23:51:54.587Z,9.60
2017-03-19T23:52:53.891Z,9.60
2017-03-19T23:53:53.231Z,9.70
2017-03-19T23:54:52.536Z,9.70
2017-03-19T23:55:51.888Z,9.70
2017-03-19T23:56:51.566Z,9.60
2017-03-19T23:57:50.889Z,9.60
2017-03-19T23:58:50.492Z,9.60
2017-03-19T23:59:49.840Z,9.70
